sensor_id;sensor_type;location;lat;lon;timestamp;pressure;altitude;pressure_sealevel;temperature;humidity
35910;BME280;22004;49.120;-0.200;2023-08-20T00:01:30;101885.59;;;19.42;89.87
35910;BME280;22004;49.120;-0.200;2023-08-20T00:03:56;101891.06;;;19.35;90.69
35910;BME280;22004;49.120;-0.200;2023-08-20T00:06:22;101887.09;;;19.31;90.62
35910;BME280;22004;49.120;-0.200;2023-08-20T00:08:48;101891.06;;;19.42;90.06
35910;BME280;22004;49.120;-0.200;2023-08-20T00:11:14;101885.41;;;19.23;90.44
35910;BME280;22004;49.120;-0.200;2023-08-20T00:13:40;101892.50;;;19.44;90.61
35910;BME280;22004;49.120;-0.200;2023-08-20T00:16:06;101892.94;;;19.28;90.36
35910;BME280;22004;49.120;-0.200;2023-08-20T00:18:31;101896.28;;;19.36;90.26
35910;BME280;22004;49.120;-0.200;2023-08-20T00:20:58;101889.16;;;19.29;90.04
35910;BME280;22004;49.120;-0.200;2023-08-20T00:23:25;101895.88;;;19.33;90.20
35910;BME280;22004;49.120;-0.200;2023-08-20T00:25:50;101888.13;;;19.36;89.88
35910;BME280;22004;49.120;-0.200;2023-08-20T00:28:16;101888.97;;;19.30;90.18
35910;BME280;22004;49.120;-0.200;2023-08-20T00:30:41;101895.25;;;19.31;90.18
35910;BME280;22004;49.120;-0.200;2023-08-20T00:33:06;101889.19;;;19.22;90.49
35910;BME280;22004;49.120;-0.200;2023-08-20T00:35:32;101885.19;;;19.18;90.50
35910;BME280;22004;49.120;-0.200;2023-08-20T00:37:58;101889.16;;;19.29;90.42
35910;BME280;22004;49.120;-0.200;2023-08-20T00:40:23;101890.66;;;19.25;89.88
35910;BME280;22004;49.120;-0.200;2023-08-20T00:42:48;101892.72;;;19.23;89.76
35910;BME280;22004;49.120;-0.200;2023-08-20T00:45:14;101893.56;;;19.23;90.14
35910;BME280;22004;49.120;-0.200;2023-08-20T00:47:41;101892.13;;;19.21;90.13
35910;BME280;22004;49.120;-0.200;2023-08-20T00:50:07;101894.63;;;19.22;90.33
35910;BME280;22004;49.120;-0.200;2023-08-20T00:52:34;101895.66;;;19.28;89.97
35910;BME280;22004;49.120;-0.200;2023-08-20T00:55:03;101894.22;;;19.05;91.00
35910;BME280;22004;49.120;-0.200;2023-08-20T00:57:32;101890.03;;;19.16;90.64
35910;BME280;22004;49.120;-0.200;2023-08-20T00:59:57;101894.63;;;19.16;90.99
35910;BME280;22004;49.120;-0.200;2023-08-20T01:02:23;101897.75;;;19.13;90.78
35910;BME280;22004;49.120;-0.200;2023-08-20T01:04:48;101892.75;;;19.16;90.83
35910;BME280;22004;49.120;-0.200;2023-08-20T01:10:09;101898.81;;;19.18;90.18
35910;BME280;22004;49.120;-0.200;2023-08-20T01:12:39;101897.53;;;19.07;90.71
35910;BME280;22004;49.120;-0.200;2023-08-20T01:15:06;101897.53;;;19.07;90.96
35910;BME280;22004;49.120;-0.200;2023-08-20T01:17:33;101899.88;;;19.10;90.98
35910;BME280;22004;49.120;-0.200;2023-08-20T01:19:59;101901.94;;;19.08;90.98
35910;BME280;22004;49.120;-0.200;2023-08-20T01:30:46;101903.00;;;19.01;90.82
35910;BME280;22004;49.120;-0.200;2023-08-20T01:33:12;101900.69;;;19.11;90.20
35910;BME280;22004;49.120;-0.200;2023-08-20T01:35:39;101897.97;;;18.98;90.72
35910;BME280;22004;49.120;-0.200;2023-08-20T01:38:04;101901.94;;;18.95;91.19
35910;BME280;22004;49.120;-0.200;2023-08-20T01:40:30;101905.06;;;18.99;91.22
35910;BME280;22004;49.120;-0.200;2023-08-20T01:42:56;101909.69;;;18.98;91.47
35910;BME280;22004;49.120;-0.200;2023-08-20T01:45:22;101906.13;;;18.91;91.45
35910;BME280;22004;49.120;-0.200;2023-08-20T01:47:48;101914.06;;;18.86;91.37
35910;BME280;22004;49.120;-0.200;2023-08-20T01:50:13;101917.41;;;18.88;91.52
35910;BME280;22004;49.120;-0.200;2023-08-20T01:52:38;101916.19;;;18.97;91.67
35910;BME280;22004;49.120;-0.200;2023-08-20T01:55:04;101920.38;;;19.13;91.45
35910;BME280;22004;49.120;-0.200;2023-08-20T01:57:30;101915.34;;;18.97;90.96
35910;BME280;22004;49.120;-0.200;2023-08-20T01:59:55;101925.19;;;18.91;91.12
35910;BME280;22004;49.120;-0.200;2023-08-20T02:02:21;101916.19;;;18.91;91.47
35910;BME280;22004;49.120;-0.200;2023-08-20T02:04:46;101922.66;;;18.90;91.49
35910;BME280;22004;49.120;-0.200;2023-08-20T02:07:12;101926.19;;;18.83;91.39
35910;BME280;22004;49.120;-0.200;2023-08-20T02:09:37;101925.78;;;18.87;91.47
35910;BME280;22004;49.120;-0.200;2023-08-20T02:12:03;101918.69;;;18.85;91.48
35910;BME280;22004;49.120;-0.200;2023-08-20T02:14:28;101920.13;;;18.81;91.46
35910;BME280;22004;49.120;-0.200;2023-08-20T02:16:54;101918.47;;;18.80;91.43
35910;BME280;22004;49.120;-0.200;2023-08-20T02:19:19;101920.53;;;18.78;91.53
35910;BME280;22004;49.120;-0.200;2023-08-20T02:21:45;101912.59;;;18.77;91.55
35910;BME280;22004;49.120;-0.200;2023-08-20T02:24:10;101914.47;;;18.76;91.35
35910;BME280;22004;49.120;-0.200;2023-08-20T02:26:36;101922.63;;;18.76;91.35
35910;BME280;22004;49.120;-0.200;2023-08-20T02:29:01;101918.66;;;18.79;91.48
35910;BME280;22004;49.120;-0.200;2023-08-20T02:31:27;101927.69;;;18.86;91.75
35910;BME280;22004;49.120;-0.200;2023-08-20T02:33:53;101923.69;;;18.75;91.18
35910;BME280;22004;49.120;-0.200;2023-08-20T02:36:18;101923.88;;;18.74;91.72
35910;BME280;22004;49.120;-0.200;2023-08-20T02:38:45;101924.69;;;18.74;91.45
35910;BME280;22004;49.120;-0.200;2023-08-20T02:41:10;101912.81;;;18.75;91.37
35910;BME280;22004;49.120;-0.200;2023-08-20T02:43:37;101915.94;;;18.72;91.22
35910;BME280;22004;49.120;-0.200;2023-08-20T02:46:02;101922.16;;;18.66;91.54
35910;BME280;22004;49.120;-0.200;2023-08-20T02:48:28;101922.16;;;18.66;91.62
35910;BME280;22004;49.120;-0.200;2023-08-20T02:50:54;101925.06;;;18.65;91.37
35910;BME280;22004;49.120;-0.200;2023-08-20T02:53:20;101923.66;;;18.69;91.85
35910;BME280;22004;49.120;-0.200;2023-08-20T02:55:45;101920.06;;;18.62;91.62
35910;BME280;22004;49.120;-0.200;2023-08-20T02:58:10;101913.13;;;18.59;91.54
35910;BME280;22004;49.120;-0.200;2023-08-20T03:00:36;101912.34;;;18.65;91.66
35910;BME280;22004;49.120;-0.200;2023-08-20T03:03:02;101917.31;;;18.55;91.46
35910;BME280;22004;49.120;-0.200;2023-08-20T03:05:31;101922.78;;;18.55;91.48
35910;BME280;22004;49.120;-0.200;2023-08-20T03:07:56;101923.59;;;18.55;91.70
35910;BME280;22004;49.120;-0.200;2023-08-20T03:10:22;101926.94;;;18.51;91.40
35910;BME280;22004;49.120;-0.200;2023-08-20T03:12:47;101932.59;;;18.56;91.73
35910;BME280;22004;49.120;-0.200;2023-08-20T03:15:12;101937.81;;;18.51;91.72
35910;BME280;22004;49.120;-0.200;2023-08-20T03:17:38;101942.81;;;18.54;91.56
35910;BME280;22004;49.120;-0.200;2023-08-20T03:20:03;101939.25;;;18.53;91.53
35910;BME280;22004;49.120;-0.200;2023-08-20T03:22:32;101939.88;;;18.42;91.28
35910;BME280;22004;49.120;-0.200;2023-08-20T03:24:57;101942.59;;;18.49;91.44
35910;BME280;22004;49.120;-0.200;2023-08-20T03:27:22;101943.88;;;18.53;91.68
35910;BME280;22004;49.120;-0.200;2023-08-20T03:29:48;101939.69;;;18.50;91.44
35910;BME280;22004;49.120;-0.200;2023-08-20T03:32:13;101941.59;;;18.56;91.38
35910;BME280;22004;49.120;-0.200;2023-08-20T03:34:39;101945.31;;;18.49;91.34
35910;BME280;22004;49.120;-0.200;2023-08-20T03:37:04;101945.31;;;18.49;91.61
35910;BME280;22004;49.120;-0.200;2023-08-20T03:39:30;101938.00;;;18.49;91.08
35910;BME280;22004;49.120;-0.200;2023-08-20T03:41:56;101940.31;;;18.46;91.11
35910;BME280;22004;49.120;-0.200;2023-08-20T03:44:22;101950.16;;;18.53;91.05
35910;BME280;22004;49.120;-0.200;2023-08-20T03:46:47;101947.19;;;18.48;91.04
35910;BME280;22004;49.120;-0.200;2023-08-20T03:49:13;101935.50;;;18.48;90.98
35910;BME280;22004;49.120;-0.200;2023-08-20T03:51:38;101940.06;;;18.41;90.92
35910;BME280;22004;49.120;-0.200;2023-08-20T03:54:04;101940.03;;;18.34;91.19
35910;BME280;22004;49.120;-0.200;2023-08-20T03:56:29;101942.13;;;18.39;91.26
35910;BME280;22004;49.120;-0.200;2023-08-20T03:58:55;101941.72;;;18.35;91.25
35910;BME280;22004;49.120;-0.200;2023-08-20T04:01:21;101943.41;;;18.36;91.07
35910;BME280;22004;49.120;-0.200;2023-08-20T04:03:48;101944.00;;;18.31;91.28
35910;BME280;22004;49.120;-0.200;2023-08-20T04:06:14;101949.47;;;18.38;91.06
35910;BME280;22004;49.120;-0.200;2023-08-20T04:08:39;101951.94;;;18.33;91.19
35910;BME280;22004;49.120;-0.200;2023-08-20T04:11:05;101957.19;;;18.34;91.40
35910;BME280;22004;49.120;-0.200;2023-08-20T04:13:30;101956.94;;;18.23;91.02
35910;BME280;22004;49.120;-0.200;2023-08-20T04:15:56;101953.38;;;18.29;91.11
35910;BME280;22004;49.120;-0.200;2023-08-20T04:18:21;101957.75;;;18.23;91.22
35910;BME280;22004;49.120;-0.200;2023-08-20T04:20:49;101955.88;;;18.24;91.30
35910;BME280;22004;49.120;-0.200;2023-08-20T04:23:14;101953.59;;;18.27;91.33
35910;BME280;22004;49.120;-0.200;2023-08-20T04:25:40;101953.22;;;18.30;91.37
35910;BME280;22004;49.120;-0.200;2023-08-20T04:28:06;101967.81;;;18.29;91.20
35910;BME280;22004;49.120;-0.200;2023-08-20T04:30:31;101965.53;;;18.33;90.80
35910;BME280;22004;49.120;-0.200;2023-08-20T04:32:57;101961.38;;;18.37;91.13
35910;BME280;22004;49.120;-0.200;2023-08-20T04:35:22;101969.28;;;18.25;91.20
35910;BME280;22004;49.120;-0.200;2023-08-20T04:37:47;101967.44;;;18.32;91.08
35910;BME280;22004;49.120;-0.200;2023-08-20T04:40:13;101967.66;;;18.38;90.78
35910;BME280;22004;49.120;-0.200;2023-08-20T04:42:38;101971.44;;;18.37;90.76
35910;BME280;22004;49.120;-0.200;2023-08-20T04:45:04;101975.81;;;18.38;90.82
35910;BME280;22004;49.120;-0.200;2023-08-20T04:47:29;101980.63;;;18.36;90.56
35910;BME280;22004;49.120;-0.200;2023-08-20T04:49:55;101979.97;;;18.33;90.63
35910;BME280;22004;49.120;-0.200;2023-08-20T04:52:20;101982.88;;;18.25;90.82
35910;BME280;22004;49.120;-0.200;2023-08-20T04:54:47;101983.03;;;18.17;91.11
35910;BME280;22004;49.120;-0.200;2023-08-20T04:57:12;101981.78;;;18.20;91.07
35910;BME280;22004;49.120;-0.200;2023-08-20T04:59:37;101984.72;;;18.25;90.92
35910;BME280;22004;49.120;-0.200;2023-08-20T05:02:03;101985.50;;;18.12;90.91
35910;BME280;22004;49.120;-0.200;2023-08-20T05:04:28;101984.09;;;18.16;91.21
35910;BME280;22004;49.120;-0.200;2023-08-20T05:06:53;101984.91;;;18.17;90.85
35910;BME280;22004;49.120;-0.200;2023-08-20T05:09:19;101984.22;;;18.08;91.01
35910;BME280;22004;49.120;-0.200;2023-08-20T05:11:44;101987.19;;;18.13;91.21
35910;BME280;22004;49.120;-0.200;2023-08-20T05:14:10;101990.13;;;18.18;90.67
35910;BME280;22004;49.120;-0.200;2023-08-20T05:16:35;101989.69;;;18.15;90.71
35910;BME280;22004;49.120;-0.200;2023-08-20T05:19:00;101999.72;;;18.14;91.18
35910;BME280;22004;49.120;-0.200;2023-08-20T05:21:26;102003.28;;;18.15;90.76
35910;BME280;22004;49.120;-0.200;2023-08-20T05:23:51;101999.50;;;18.09;90.92
35910;BME280;22004;49.120;-0.200;2023-08-20T05:26:16;102004.56;;;18.19;90.57
35910;BME280;22004;49.120;-0.200;2023-08-20T05:28:42;102005.81;;;18.16;90.83
35910;BME280;22004;49.120;-0.200;2023-08-20T05:31:07;102004.38;;;18.20;90.86
35910;BME280;22004;49.120;-0.200;2023-08-20T05:33:33;102002.06;;;18.17;90.40
35910;BME280;22004;49.120;-0.200;2023-08-20T05:35:59;101995.56;;;18.18;90.38
35910;BME280;22004;49.120;-0.200;2023-08-20T05:38:25;102001.19;;;18.10;90.71
35910;BME280;22004;49.120;-0.200;2023-08-20T05:40:50;101995.81;;;18.23;90.45
35910;BME280;22004;49.120;-0.200;2023-08-20T05:43:16;101996.84;;;18.22;90.27
35910;BME280;22004;49.120;-0.200;2023-08-20T05:45:41;102009.84;;;18.27;90.27
35910;BME280;22004;49.120;-0.200;2023-08-20T05:48:07;102016.13;;;18.27;90.40
35910;BME280;22004;49.120;-0.200;2023-08-20T05:50:32;102010.84;;;18.19;90.32
35910;BME280;22004;49.120;-0.200;2023-08-20T05:52:57;102018.56;;;18.16;90.26
35910;BME280;22004;49.120;-0.200;2023-08-20T05:55:23;102022.97;;;18.17;90.35
35910;BME280;22004;49.120;-0.200;2023-08-20T05:57:49;102026.13;;;18.20;90.50
35910;BME280;22004;49.120;-0.200;2023-08-20T06:00:14;102024.91;;;18.29;90.18
35910;BME280;22004;49.120;-0.200;2023-08-20T06:02:40;102035.75;;;18.23;90.35
35910;BME280;22004;49.120;-0.200;2023-08-20T06:05:06;102039.75;;;18.27;90.48
35910;BME280;22004;49.120;-0.200;2023-08-20T06:07:31;102030.16;;;18.31;90.09
35910;BME280;22004;49.120;-0.200;2023-08-20T06:09:57;102038.91;;;18.26;90.40
35910;BME280;22004;49.120;-0.200;2023-08-20T06:12:23;102040.38;;;18.29;90.45
35910;BME280;22004;49.120;-0.200;2023-08-20T06:14:48;102041.91;;;18.38;90.12
35910;BME280;22004;49.120;-0.200;2023-08-20T06:17:14;102036.47;;;18.38;90.00
35910;BME280;22004;49.120;-0.200;2023-08-20T06:19:39;102041.03;;;18.31;90.47
35910;BME280;22004;49.120;-0.200;2023-08-20T06:22:05;102037.66;;;18.29;90.73
35910;BME280;22004;49.120;-0.200;2023-08-20T06:24:30;102043.75;;;18.31;90.76
35910;BME280;22004;49.120;-0.200;2023-08-20T06:26:55;102047.13;;;18.40;90.38
35910;BME280;22004;49.120;-0.200;2023-08-20T06:29:21;102045.06;;;18.42;90.29
35910;BME280;22004;49.120;-0.200;2023-08-20T06:31:47;102044.25;;;18.48;90.25
35910;BME280;22004;49.120;-0.200;2023-08-20T06:34:13;102039.25;;;18.51;90.43
35910;BME280;22004;49.120;-0.200;2023-08-20T06:36:39;102040.69;;;18.89;89.44
35910;BME280;22004;49.120;-0.200;2023-08-20T06:39:04;102041.00;;;19.20;87.61
35910;BME280;22004;49.120;-0.200;2023-08-20T06:41:30;102039.38;;;19.52;86.15
35910;BME280;22004;49.120;-0.200;2023-08-20T06:43:55;102052.09;;;20.51;82.04
35910;BME280;22004;49.120;-0.200;2023-08-20T06:46:21;102046.84;;;21.71;77.67
35910;BME280;22004;49.120;-0.200;2023-08-20T06:48:46;102047.03;;;22.75;73.41
35910;BME280;22004;49.120;-0.200;2023-08-20T06:51:14;102056.97;;;24.24;68.11
35910;BME280;22004;49.120;-0.200;2023-08-20T06:53:41;102049.31;;;24.50;66.68
35910;BME280;22004;49.120;-0.200;2023-08-20T06:56:09;102054.09;;;23.96;67.95
35910;BME280;22004;49.120;-0.200;2023-08-20T06:58:35;102056.16;;;24.36;67.41
35910;BME280;22004;49.120;-0.200;2023-08-20T07:01:01;102055.84;;;24.72;66.06
35910;BME280;22004;49.120;-0.200;2023-08-20T07:03:37;102053.69;;;25.03;65.20
35910;BME280;22004;49.120;-0.200;2023-08-20T07:06:03;102054.13;;;25.23;64.47
35910;BME280;22004;49.120;-0.200;2023-08-20T07:08:28;102054.13;;;25.23;64.77
35910;BME280;22004;49.120;-0.200;2023-08-20T07:10:54;102039.03;;;25.26;64.26
35910;BME280;22004;49.120;-0.200;2023-08-20T07:13:19;102045.81;;;25.52;63.96
35910;BME280;22004;49.120;-0.200;2023-08-20T07:15:44;102039.53;;;24.31;66.81
35910;BME280;22004;49.120;-0.200;2023-08-20T07:18:10;102046.03;;;25.96;63.15
35910;BME280;22004;49.120;-0.200;2023-08-20T07:20:46;102040.75;;;25.94;62.84
35910;BME280;22004;49.120;-0.200;2023-08-20T07:23:12;102045.34;;;26.66;61.29
35910;BME280;22004;49.120;-0.200;2023-08-20T07:25:38;102035.06;;;25.67;64.02
35910;BME280;22004;49.120;-0.200;2023-08-20T07:28:08;102040.25;;;25.81;64.05
35910;BME280;22004;49.120;-0.200;2023-08-20T07:30:36;102047.88;;;27.17;61.19
35910;BME280;22004;49.120;-0.200;2023-08-20T07:33:02;102046.97;;;26.23;61.77
35910;BME280;22004;49.120;-0.200;2023-08-20T07:35:28;102031.81;;;25.37;64.92
35910;BME280;22004;49.120;-0.200;2023-08-20T07:37:54;102042.91;;;25.59;63.40
35910;BME280;22004;49.120;-0.200;2023-08-20T07:40:20;102050.91;;;26.49;62.78
35910;BME280;22004;49.120;-0.200;2023-08-20T07:42:45;102051.53;;;27.00;61.16
35910;BME280;22004;49.120;-0.200;2023-08-20T07:45:11;102051.66;;;25.72;66.76
35910;BME280;22004;49.120;-0.200;2023-08-20T07:47:37;102053.72;;;25.48;65.31
35910;BME280;22004;49.120;-0.200;2023-08-20T07:50:03;102067.19;;;26.73;63.24
35910;BME280;22004;49.120;-0.200;2023-08-20T07:52:28;102057.75;;;25.58;63.22
35910;BME280;22004;49.120;-0.200;2023-08-20T07:54:54;102059.75;;;27.76;60.26
35910;BME280;22004;49.120;-0.200;2023-08-20T07:57:19;102071.47;;;27.08;60.71
35910;BME280;22004;49.120;-0.200;2023-08-20T07:59:45;102068.56;;;26.32;62.42
35910;BME280;22004;49.120;-0.200;2023-08-20T08:02:10;102075.91;;;26.87;59.83
35910;BME280;22004;49.120;-0.200;2023-08-20T08:04:36;102075.84;;;26.82;60.93
35910;BME280;22004;49.120;-0.200;2023-08-20T08:07:01;102077.13;;;25.96;60.17
35910;BME280;22004;49.120;-0.200;2023-08-20T08:09:29;102072.38;;;26.30;62.52
35910;BME280;22004;49.120;-0.200;2023-08-20T08:11:55;102085.31;;;28.04;61.70
35910;BME280;22004;49.120;-0.200;2023-08-20T08:14:21;102077.03;;;25.91;61.60
35910;BME280;22004;49.120;-0.200;2023-08-20T08:16:46;102080.31;;;26.88;63.14
35910;BME280;22004;49.120;-0.200;2023-08-20T08:19:12;102080.63;;;26.47;62.84
35910;BME280;22004;49.120;-0.200;2023-08-20T08:21:38;102086.00;;;27.84;59.21
35910;BME280;22004;49.120;-0.200;2023-08-20T08:24:04;102072.44;;;26.96;60.97
35910;BME280;22004;49.120;-0.200;2023-08-20T08:26:30;102086.31;;;27.28;59.03
35910;BME280;22004;49.120;-0.200;2023-08-20T08:28:56;102084.84;;;27.75;58.04
35910;BME280;22004;49.120;-0.200;2023-08-20T08:31:23;102079.81;;;26.47;61.54
35910;BME280;22004;49.120;-0.200;2023-08-20T08:33:48;102079.97;;;27.55;58.93
35910;BME280;22004;49.120;-0.200;2023-08-20T08:36:13;102075.44;;;27.44;59.12
35910;BME280;22004;49.120;-0.200;2023-08-20T08:38:41;102070.34;;;27.63;57.14
35910;BME280;22004;49.120;-0.200;2023-08-20T08:41:12;102068.28;;;27.16;58.92
35910;BME280;22004;49.120;-0.200;2023-08-20T08:43:39;102064.25;;;26.58;59.39
35910;BME280;22004;49.120;-0.200;2023-08-20T08:46:08;102067.00;;;27.28;58.84
35910;BME280;22004;49.120;-0.200;2023-08-20T08:48:36;102064.44;;;27.49;58.15
35910;BME280;22004;49.120;-0.200;2023-08-20T08:51:02;102067.34;;;27.10;58.48
35910;BME280;22004;49.120;-0.200;2023-08-20T08:53:27;102060.78;;;27.11;58.23
35910;BME280;22004;49.120;-0.200;2023-08-20T08:55:53;102063.50;;;27.65;60.16
35910;BME280;22004;49.120;-0.200;2023-08-20T08:58:19;102065.97;;;26.86;59.08
35910;BME280;22004;49.120;-0.200;2023-08-20T09:00:44;102068.63;;;26.75;61.29
35910;BME280;22004;49.120;-0.200;2023-08-20T09:03:09;102068.84;;;27.18;59.05
35910;BME280;22004;49.120;-0.200;2023-08-20T09:05:55;102068.38;;;27.04;60.75
35910;BME280;22004;49.120;-0.200;2023-08-20T09:08:22;102068.34;;;26.77;58.38
35910;BME280;22004;49.120;-0.200;2023-08-20T09:10:52;102065.84;;;26.53;59.56
35910;BME280;22004;49.120;-0.200;2023-08-20T09:13:22;102066.66;;;26.54;60.24
35910;BME280;22004;49.120;-0.200;2023-08-20T09:15:51;102072.25;;;27.89;58.71
35910;BME280;22004;49.120;-0.200;2023-08-20T09:18:17;102071.88;;;27.75;57.72
35910;BME280;22004;49.120;-0.200;2023-08-20T09:20:42;102077.94;;;26.74;59.35
35910;BME280;22004;49.120;-0.200;2023-08-20T09:23:11;102077.94;;;26.52;59.60
35910;BME280;22004;49.120;-0.200;2023-08-20T09:25:38;102083.25;;;27.03;58.86
35910;BME280;22004;49.120;-0.200;2023-08-20T09:28:03;102071.38;;;26.75;56.42
35910;BME280;22004;49.120;-0.200;2023-08-20T09:30:29;102073.66;;;26.62;58.99
35910;BME280;22004;49.120;-0.200;2023-08-20T09:33:06;102082.97;;;27.04;58.64
35910;BME280;22004;49.120;-0.200;2023-08-20T09:35:32;102064.44;;;26.73;58.23
35910;BME280;22004;49.120;-0.200;2023-08-20T09:38:01;102070.81;;;26.18;59.66
35910;BME280;22004;49.120;-0.200;2023-08-20T09:40:27;102070.75;;;26.13;59.10
35910;BME280;22004;49.120;-0.200;2023-08-20T09:42:54;102079.84;;;27.18;58.29
35910;BME280;22004;49.120;-0.200;2023-08-20T09:45:20;102076.44;;;27.33;57.65
35910;BME280;22004;49.120;-0.200;2023-08-20T09:47:48;102068.59;;;26.53;59.60
35910;BME280;22004;49.120;-0.200;2023-08-20T09:50:17;102074.78;;;25.88;58.77
35910;BME280;22004;49.120;-0.200;2023-08-20T09:53:12;102071.06;;;25.66;61.33
35910;BME280;22004;49.120;-0.200;2023-08-20T09:55:42;102073.97;;;26.65;58.63
35910;BME280;22004;49.120;-0.200;2023-08-20T09:58:08;102067.91;;;26.63;58.42
35910;BME280;22004;49.120;-0.200;2023-08-20T10:00:34;102072.25;;;26.03;56.37
35910;BME280;22004;49.120;-0.200;2023-08-20T10:03:00;102064.75;;;26.54;58.04
35910;BME280;22004;49.120;-0.200;2023-08-20T10:05:27;102072.69;;;25.95;56.06
35910;BME280;22004;49.120;-0.200;2023-08-20T10:07:52;102070.63;;;26.41;58.08
35910;BME280;22004;49.120;-0.200;2023-08-20T10:10:19;102076.06;;;26.80;57.19
35910;BME280;22004;49.120;-0.200;2023-08-20T10:12:45;102072.22;;;26.20;58.32
35910;BME280;22004;49.120;-0.200;2023-08-20T10:15:12;102073.25;;;26.14;57.80
35910;BME280;22004;49.120;-0.200;2023-08-20T10:17:42;102083.66;;;26.46;59.37
35910;BME280;22004;49.120;-0.200;2023-08-20T10:20:09;102078.22;;;26.34;58.44
35910;BME280;22004;49.120;-0.200;2023-08-20T10:22:42;102077.63;;;26.49;59.40
35910;BME280;22004;49.120;-0.200;2023-08-20T10:25:12;102071.81;;;26.28;58.32
35910;BME280;22004;49.120;-0.200;2023-08-20T10:27:40;102078.16;;;26.46;58.56
35910;BME280;22004;49.120;-0.200;2023-08-20T10:30:09;102079.03;;;26.73;57.37
35910;BME280;22004;49.120;-0.200;2023-08-20T10:32:51;102077.75;;;26.59;58.44
35910;BME280;22004;49.120;-0.200;2023-08-20T10:35:23;102074.69;;;26.56;57.72
35910;BME280;22004;49.120;-0.200;2023-08-20T10:38:14;102077.88;;;26.30;57.81
35910;BME280;22004;49.120;-0.200;2023-08-20T10:40:55;102076.41;;;26.23;59.51
35910;BME280;22004;49.120;-0.200;2023-08-20T10:46:07;102090.28;;;26.11;58.55
35910;BME280;22004;49.120;-0.200;2023-08-20T10:48:33;102089.09;;;26.85;56.76
35910;BME280;22004;49.120;-0.200;2023-08-20T10:53:36;102095.84;;;25.99;58.96
35910;BME280;22004;49.120;-0.200;2023-08-20T10:56:12;102083.56;;;26.41;58.84
35910;BME280;22004;49.120;-0.200;2023-08-20T10:58:40;102086.13;;;26.30;58.58
35910;BME280;22004;49.120;-0.200;2023-08-20T11:01:22;102097.94;;;26.65;59.59
35910;BME280;22004;49.120;-0.200;2023-08-20T11:03:51;102092.09;;;26.22;59.82
35910;BME280;22004;49.120;-0.200;2023-08-20T11:06:17;102091.91;;;26.68;58.71
35910;BME280;22004;49.120;-0.200;2023-08-20T11:08:44;102092.38;;;26.82;58.75
35910;BME280;22004;49.120;-0.200;2023-08-20T11:11:10;102095.25;;;26.70;59.80
35910;BME280;22004;49.120;-0.200;2023-08-20T11:13:36;102100.88;;;26.58;57.90
35910;BME280;22004;49.120;-0.200;2023-08-20T11:16:02;102093.25;;;26.26;60.66
35910;BME280;22004;49.120;-0.200;2023-08-20T11:18:28;102095.94;;;25.71;61.05
35910;BME280;22004;49.120;-0.200;2023-08-20T11:20:57;102091.66;;;25.06;64.18
35910;BME280;22004;49.120;-0.200;2023-08-20T11:23:22;102095.75;;;25.04;62.98
35910;BME280;22004;49.120;-0.200;2023-08-20T11:25:47;102100.19;;;25.78;61.28
35910;BME280;22004;49.120;-0.200;2023-08-20T11:28:13;102095.31;;;26.75;60.60
35910;BME280;22004;49.120;-0.200;2023-08-20T11:30:38;102104.41;;;24.84;64.79
35910;BME280;22004;49.120;-0.200;2023-08-20T11:33:04;102101.44;;;23.91;66.76
35910;BME280;22004;49.120;-0.200;2023-08-20T11:35:31;102103.50;;;25.18;63.79
35910;BME280;22004;49.120;-0.200;2023-08-20T11:37:56;102101.94;;;25.39;62.98
35910;BME280;22004;49.120;-0.200;2023-08-20T11:40:22;102103.38;;;25.87;62.43
35910;BME280;22004;49.120;-0.200;2023-08-20T11:42:48;102091.91;;;25.62;61.49
35910;BME280;22004;49.120;-0.200;2023-08-20T11:45:14;102094.22;;;25.82;62.00
35910;BME280;22004;49.120;-0.200;2023-08-20T11:47:40;102101.66;;;25.24;61.53
35910;BME280;22004;49.120;-0.200;2023-08-20T11:50:06;102096.44;;;25.22;62.37
35910;BME280;22004;49.120;-0.200;2023-08-20T11:52:33;102095.44;;;25.29;61.38
35910;BME280;22004;49.120;-0.200;2023-08-20T11:54:59;102089.13;;;25.45;61.72
35910;BME280;22004;49.120;-0.200;2023-08-20T11:57:25;102097.28;;;25.40;60.42
35910;BME280;22004;49.120;-0.200;2023-08-20T11:59:50;102102.03;;;25.90;60.96
35910;BME280;22004;49.120;-0.200;2023-08-20T12:02:25;102103.47;;;25.47;60.48
35910;BME280;22004;49.120;-0.200;2023-08-20T12:04:50;102105.41;;;25.46;61.42
35910;BME280;22004;49.120;-0.200;2023-08-20T12:07:16;102093.31;;;25.64;61.66
35910;BME280;22004;49.120;-0.200;2023-08-20T12:09:41;102100.09;;;25.28;61.96
35910;BME280;22004;49.120;-0.200;2023-08-20T12:12:07;102111.78;;;25.81;61.17
35910;BME280;22004;49.120;-0.200;2023-08-20T12:14:34;102105.50;;;25.51;59.30
35910;BME280;22004;49.120;-0.200;2023-08-20T12:16:59;102107.28;;;26.08;59.45
35910;BME280;22004;49.120;-0.200;2023-08-20T12:19:25;102112.72;;;25.86;61.15
35910;BME280;22004;49.120;-0.200;2023-08-20T12:21:50;102107.69;;;26.17;60.10
35910;BME280;22004;49.120;-0.200;2023-08-20T12:24:17;102111.53;;;25.99;59.51
35910;BME280;22004;49.120;-0.200;2023-08-20T12:26:44;102114.16;;;25.60;60.00
35910;BME280;22004;49.120;-0.200;2023-08-20T12:29:09;102113.72;;;24.83;63.48
35910;BME280;22004;49.120;-0.200;2023-08-20T12:31:35;102104.22;;;25.14;62.33
35910;BME280;22004;49.120;-0.200;2023-08-20T12:34:01;102119.91;;;25.30;61.21
35910;BME280;22004;49.120;-0.200;2023-08-20T12:36:27;102110.44;;;25.09;62.27
35910;BME280;22004;49.120;-0.200;2023-08-20T12:38:54;102115.69;;;25.11;61.04
35910;BME280;22004;49.120;-0.200;2023-08-20T12:41:20;102117.41;;;24.88;62.81
35910;BME280;22004;49.120;-0.200;2023-08-20T12:43:46;102115.50;;;24.89;63.27
35910;BME280;22004;49.120;-0.200;2023-08-20T12:46:11;102113.94;;;24.81;63.88
35910;BME280;22004;49.120;-0.200;2023-08-20T12:48:38;102124.69;;;24.94;62.32
35910;BME280;22004;49.120;-0.200;2023-08-20T12:51:04;102113.47;;;24.84;62.46
35910;BME280;22004;49.120;-0.200;2023-08-20T12:53:30;102110.00;;;24.37;63.75